createdAt,value
2018-09-15T00:00:43.227Z,12.49
2018-09-15T00:01:45.971Z,12.39
2018-09-15T00:02:48.960Z,12.37
2018-09-15T00:03:52.148Z,12.41
2018-09-15T00:04:55.415Z,12.41
2018-09-15T00:05:58.631Z,12.31
2018-09-15T00:07:02.581Z,12.29
2018-09-15T00:08:05.592Z,12.31
2018-09-15T00:09:09.977Z,12.40
2018-09-15T00:10:13.100Z,12.48
2018-09-15T00:11:16.403Z,12.43
2018-09-15T00:12:19.322Z,12.35
2018-09-15T00:13:23.128Z,12.34
2018-09-15T00:14:25.823Z,12.23
2018-09-15T00:15:28.550Z,12.15
2018-09-15T00:16:32.430Z,12.26
2018-09-15T00:17:35.837Z,12.34
2018-09-15T00:18:39.718Z,12.43
2018-09-15T00:19:42.539Z,12.41
2018-09-15T00:20:45.259Z,12.37
2018-09-15T00:21:47.998Z,12.36
2018-09-15T00:22:50.808Z,12.25
2018-09-15T00:23:54.651Z,12.22
2018-09-15T00:24:57.517Z,12.17
2018-09-15T00:26:00.335Z,12.19
2018-09-15T00:27:03.215Z,12.20
2018-09-15T00:28:05.918Z,12.26
2018-09-15T00:29:08.744Z,12.32
2018-09-15T00:30:12.856Z,12.31
2018-09-15T00:31:15.673Z,12.34
2018-09-15T00:32:18.555Z,12.34
2018-09-15T00:33:21.367Z,12.39
2018-09-15T00:34:24.752Z,12.33
2018-09-15T00:35:28.369Z,12.21
2018-09-15T00:36:31.392Z,12.27
2018-09-15T00:37:34.581Z,12.31
2018-09-15T00:38:37.353Z,12.40
2018-09-15T00:39:40.179Z,12.42
2018-09-15T00:40:42.890Z,12.34
2018-09-15T00:41:45.642Z,12.41
2018-09-15T00:42:48.801Z,12.43
2018-09-15T00:43:51.574Z,12.49
2018-09-15T00:44:54.391Z,12.49
2018-09-15T00:45:57.168Z,12.54
2018-09-15T00:46:59.885Z,12.53
2018-09-15T00:48:02.661Z,12.43
2018-09-15T00:49:05.724Z,12.37
2018-09-15T00:50:08.450Z,12.40
2018-09-15T00:51:11.199Z,12.37
2018-09-15T00:52:13.938Z,12.41
2018-09-15T00:53:16.710Z,12.46
2018-09-15T00:54:19.460Z,12.51
2018-09-15T00:55:22.527Z,12.53
2018-09-15T00:56:25.242Z,12.53
2018-09-15T00:57:28.031Z,12.62
2018-09-15T00:58:30.751Z,12.65
2018-09-15T00:59:33.483Z,12.67
2018-09-15T01:00:36.282Z,12.59
2018-09-15T01:01:39.358Z,12.52
2018-09-15T01:02:42.097Z,12.50
2018-09-15T01:03:44.873Z,12.48
2018-09-15T01:04:47.591Z,12.40
2018-09-15T01:05:50.315Z,12.47
2018-09-15T01:06:53.038Z,12.53
2018-09-15T01:07:56.059Z,12.55
2018-09-15T01:08:59.682Z,12.55
2018-09-15T01:10:02.533Z,12.56
2018-09-15T01:11:05.275Z,12.54
2018-09-15T01:12:08.850Z,12.50
2018-09-15T01:13:11.617Z,12.48
2018-09-15T01:14:14.704Z,12.50
2018-09-15T01:15:18.965Z,12.58
2018-09-15T01:16:21.715Z,12.53
2018-09-15T01:17:24.649Z,12.51
2018-09-15T01:18:27.869Z,12.48
2018-09-15T01:19:31.650Z,12.36
2018-09-15T01:20:34.941Z,12.27
2018-09-15T01:21:37.682Z,12.27
2018-09-15T01:22:40.509Z,12.20
2018-09-15T01:23:43.261Z,12.23
2018-09-15T01:24:46.342Z,12.27
2018-09-15T01:25:49.143Z,12.26
2018-09-15T01:26:52.282Z,12.20
2018-09-15T01:27:56.602Z,12.28
2018-09-15T01:29:00.340Z,12.33
2018-09-15T01:30:03.200Z,12.37
2018-09-15T01:31:05.986Z,12.42
2018-09-15T01:32:08.818Z,12.47
2018-09-15T01:33:12.069Z,12.51
2018-09-15T01:34:16.249Z,12.57
2018-09-15T01:35:18.989Z,12.59
2018-09-15T01:36:24.137Z,12.61
2018-09-15T01:37:26.912Z,12.57
2018-09-15T01:38:29.672Z,12.47
2018-09-15T01:39:33.850Z,12.44
2018-09-15T01:40:36.593Z,12.43
2018-09-15T01:41:39.854Z,12.47
2018-09-15T01:42:43.548Z,12.46
2018-09-15T01:43:46.271Z,12.49
2018-09-15T01:44:49.623Z,12.55
2018-09-15T01:45:52.663Z,12.55
2018-09-15T01:46:55.388Z,12.49
2018-09-15T01:48:02.173Z,12.48
2018-09-15T01:49:05.512Z,12.47
2018-09-15T01:50:10.285Z,12.43
2018-09-15T01:51:13.048Z,12.36
2018-09-15T01:52:16.253Z,12.33
2018-09-15T01:53:18.980Z,12.34
2018-09-15T01:54:22.395Z,12.36
2018-09-15T01:55:25.227Z,12.41
2018-09-15T01:56:27.985Z,12.44
2018-09-15T01:57:31.431Z,12.36
2018-09-15T01:58:35.298Z,12.35
2018-09-15T01:59:38.847Z,12.35
2018-09-15T02:00:41.638Z,12.30
2018-09-15T02:01:45.156Z,12.25
2018-09-15T02:02:48.573Z,12.24
2018-09-15T02:03:51.334Z,12.17
2018-09-15T02:04:54.397Z,12.14
2018-09-15T02:05:57.344Z,12.04
2018-09-15T02:07:00.105Z,11.86
2018-09-15T02:08:03.617Z,11.87
2018-09-15T02:09:07.768Z,11.92
2018-09-15T02:10:11.137Z,11.99
2018-09-15T02:11:14.255Z,12.01
2018-09-15T02:12:17.010Z,11.97
2018-09-15T02:13:19.769Z,11.88
2018-09-15T02:14:22.533Z,11.81
2018-09-15T02:15:25.270Z,11.84
2018-09-15T02:16:28.063Z,11.83
2018-09-15T02:17:32.468Z,11.80
2018-09-15T02:18:35.305Z,11.84
2018-09-15T02:19:38.058Z,11.75
2018-09-15T02:20:41.469Z,11.70
2018-09-15T02:21:44.265Z,11.67
2018-09-15T02:22:47.033Z,11.65
2018-09-15T02:23:50.089Z,11.58
2018-09-15T02:24:52.843Z,11.45
2018-09-15T02:25:55.603Z,11.51
2018-09-15T02:26:58.365Z,11.55
2018-09-15T02:28:01.819Z,11.56
2018-09-15T02:29:05.189Z,11.57
2018-09-15T02:30:09.406Z,11.61
2018-09-15T02:31:13.304Z,11.62
2018-09-15T02:32:17.693Z,11.65
2018-09-15T02:33:20.466Z,11.59
2018-09-15T02:34:23.342Z,11.55
2018-09-15T02:35:26.119Z,11.53
2018-09-15T02:36:29.237Z,11.56
2018-09-15T02:37:31.985Z,11.53
2018-09-15T02:38:34.731Z,11.56
2018-09-15T02:39:37.495Z,11.59
2018-09-15T02:40:40.289Z,11.65
2018-09-15T02:41:44.188Z,11.67
2018-09-15T02:42:47.880Z,11.63
2018-09-15T02:43:50.708Z,11.59
2018-09-15T02:44:53.471Z,11.54
2018-09-15T02:45:57.868Z,11.54
2018-09-15T02:47:01.437Z,11.52
2018-09-15T02:48:04.486Z,11.58
2018-09-15T02:49:07.256Z,11.58
2018-09-15T02:50:10.504Z,11.55
2018-09-15T02:51:13.302Z,11.50
2018-09-15T02:52:16.743Z,11.45
2018-09-15T02:53:19.768Z,11.35
2018-09-15T02:54:24.760Z,11.36
2018-09-15T02:55:27.520Z,11.39
2018-09-15T02:56:30.268Z,11.42
2018-09-15T02:57:33.752Z,11.46
2018-09-15T02:58:36.531Z,11.42
2018-09-15T02:59:40.054Z,11.43
2018-09-15T03:00:43.143Z,11.47
2018-09-15T03:01:45.942Z,11.44
2018-09-15T03:02:48.681Z,11.40
2018-09-15T03:03:51.436Z,11.27
2018-09-15T03:04:54.974Z,11.25
2018-09-15T03:05:57.852Z,11.20
2018-09-15T03:07:02.753Z,11.17
2018-09-15T03:08:05.497Z,11.06
2018-09-15T03:09:08.242Z,10.93
2018-09-15T03:10:11.022Z,10.82
2018-09-15T03:11:13.804Z,10.67
2018-09-15T03:12:17.181Z,10.63
2018-09-15T03:13:20.218Z,10.57
2018-09-15T03:14:23.668Z,10.56
2018-09-15T03:15:26.640Z,10.53
2018-09-15T03:16:30.951Z,10.50
2018-09-15T03:17:34.467Z,10.50
2018-09-15T03:18:38.378Z,10.40
2018-09-15T03:19:41.208Z,10.42
2018-09-15T03:20:44.531Z,10.40
2018-09-15T03:21:47.396Z,10.49
2018-09-15T03:22:50.350Z,10.58
2018-09-15T03:23:53.798Z,10.64
2018-09-15T03:24:57.707Z,10.57
2018-09-15T03:26:00.582Z,10.56
2018-09-15T03:27:04.113Z,10.50
2018-09-15T03:28:07.643Z,10.42
2018-09-15T03:29:11.433Z,10.47
2018-09-15T03:30:14.170Z,10.62
2018-09-15T03:31:17.305Z,10.70
2018-09-15T03:32:20.731Z,10.68
2018-09-15T03:33:23.503Z,10.70
2018-09-15T03:34:26.589Z,10.75
2018-09-15T03:35:30.584Z,10.75
2018-09-15T03:36:33.351Z,10.74
2018-09-15T03:37:36.406Z,10.53
2018-09-15T03:38:39.216Z,10.52
2018-09-15T03:39:42.900Z,10.56
2018-09-15T03:40:45.654Z,10.58
2018-09-15T03:41:48.439Z,10.47
2018-09-15T03:42:51.223Z,10.42
2018-09-15T03:43:54.257Z,10.38
2018-09-15T03:44:57.792Z,10.28
2018-09-15T03:46:00.533Z,10.26
2018-09-15T03:47:03.431Z,10.31
2018-09-15T03:48:07.386Z,10.31
2018-09-15T03:49:10.143Z,10.27
2018-09-15T03:50:14.014Z,10.27
2018-09-15T03:51:16.804Z,10.20
2018-09-15T03:52:19.553Z,10.08
2018-09-15T03:53:22.319Z,10.11
2018-09-15T03:54:25.068Z,10.07
2018-09-15T03:55:28.860Z,10.01
2018-09-15T03:56:32.830Z,10.03
2018-09-15T03:57:37.947Z,9.99
2018-09-15T03:58:41.068Z,10.01
2018-09-15T03:59:44.782Z,10.09
2018-09-15T04:00:49.350Z,10.10
2018-09-15T04:01:52.100Z,10.13
2018-09-15T04:02:55.395Z,10.13
2018-09-15T04:03:58.850Z,10.12
2018-09-15T04:05:01.605Z,9.93
2018-09-15T04:06:05.274Z,9.97
2018-09-15T04:07:08.720Z,10.02
2018-09-15T04:08:11.465Z,10.06
2018-09-15T04:09:14.783Z,10.06
2018-09-15T04:10:17.564Z,9.92
2018-09-15T04:11:21.244Z,9.80
2018-09-15T04:12:25.733Z,9.67
2018-09-15T04:13:31.020Z,9.56
2018-09-15T04:14:33.841Z,9.58
2018-09-15T04:15:37.140Z,9.71
2018-09-15T04:16:39.887Z,9.75
2018-09-15T04:17:42.643Z,9.74
2018-09-15T04:18:45.397Z,9.62
2018-09-15T04:19:48.774Z,9.63
2018-09-15T04:20:53.140Z,9.60
2018-09-15T04:21:57.336Z,9.57
2018-09-15T04:23:00.382Z,9.56
2018-09-15T04:24:03.908Z,9.60
2018-09-15T04:25:06.641Z,9.58
2018-09-15T04:26:09.919Z,9.61
2018-09-15T04:27:12.644Z,9.52
2018-09-15T04:28:15.924Z,9.44
2018-09-15T04:29:18.674Z,9.42
2018-09-15T04:30:21.819Z,9.38
2018-09-15T04:31:24.601Z,9.30
2018-09-15T04:32:30.961Z,9.30
2018-09-15T04:33:34.121Z,9.29
2018-09-15T04:34:36.867Z,9.28
2018-09-15T04:35:40.258Z,9.29
2018-09-15T04:36:42.989Z,9.31
2018-09-15T04:37:45.756Z,9.34
2018-09-15T04:38:49.360Z,9.42
2018-09-15T04:39:52.383Z,9.52
2018-09-15T04:40:57.136Z,9.54
2018-09-15T04:41:59.898Z,9.57
2018-09-15T04:43:02.792Z,9.55
2018-09-15T04:44:05.579Z,9.48
2018-09-15T04:45:08.333Z,9.48
2018-09-15T04:46:13.030Z,9.41
2018-09-15T04:47:15.797Z,9.35
2018-09-15T04:48:19.113Z,9.32
2018-09-15T04:49:25.487Z,9.28
2018-09-15T04:50:28.236Z,9.24
2018-09-15T04:51:32.619Z,9.26
2018-09-15T04:52:35.683Z,9.30
2018-09-15T04:53:38.486Z,9.28
2018-09-15T04:54:41.225Z,9.23
2018-09-15T04:55:44.016Z,9.21
2018-09-15T04:56:46.786Z,9.22
2018-09-15T04:57:50.483Z,9.22
2018-09-15T04:58:53.665Z,9.27
2018-09-15T04:59:56.491Z,9.29
2018-09-15T05:00:59.329Z,9.23
2018-09-15T05:02:02.085Z,9.25
2018-09-15T05:03:05.473Z,9.32
2018-09-15T05:04:08.232Z,9.30
2018-09-15T05:05:12.199Z,9.25
2018-09-15T05:06:15.400Z,9.16
2018-09-15T05:07:18.262Z,9.08
2018-09-15T05:08:21.805Z,9.08
2018-09-15T05:09:24.562Z,9.07
2018-09-15T05:10:28.221Z,9.12
2018-09-15T05:11:31.255Z,9.05
2018-09-15T05:12:34.878Z,9.01
2018-09-15T05:13:37.656Z,9.04
2018-09-15T05:14:40.393Z,9.07
2018-09-15T05:15:43.159Z,9.11
2018-09-15T05:16:47.542Z,9.06
2018-09-15T05:17:50.584Z,9.14
2018-09-15T05:18:53.340Z,9.12
2018-09-15T05:19:56.104Z,9.04
2018-09-15T05:20:58.893Z,9.02
2018-09-15T05:22:01.681Z,9.03
2018-09-15T05:23:04.433Z,9.05
2018-09-15T05:24:07.466Z,9.04
2018-09-15T05:25:10.241Z,8.95
2018-09-15T05:26:13.037Z,8.97
2018-09-15T05:27:15.789Z,9.06
2018-09-15T05:28:18.570Z,9.09
2018-09-15T05:29:22.027Z,9.06
2018-09-15T05:30:25.125Z,9.18
2018-09-15T05:31:29.011Z,9.32
2018-09-15T05:45:37.177Z,9.20
2018-09-15T05:46:40.185Z,9.26
2018-09-15T05:47:43.797Z,9.32
2018-09-15T05:48:46.674Z,9.42
2018-09-15T05:49:49.505Z,9.48
2018-09-15T05:50:52.584Z,9.57
2018-09-15T05:51:55.338Z,9.62
2018-09-15T05:52:58.124Z,9.68
2018-09-15T05:54:00.920Z,9.67
2018-09-15T05:55:03.679Z,9.64
2018-09-15T05:56:06.466Z,9.53
2018-09-15T05:57:09.501Z,9.55
2018-09-15T05:58:12.252Z,9.62
2018-09-15T05:59:14.997Z,9.69
2018-09-15T06:00:17.866Z,9.61
2018-09-15T06:01:20.715Z,9.62
2018-09-15T06:02:23.769Z,9.64
2018-09-15T06:03:26.793Z,9.69
2018-09-15T06:04:29.562Z,9.65
2018-09-15T06:05:32.310Z,9.54
2018-09-15T06:06:36.438Z,9.56
2018-09-15T06:07:42.248Z,9.69
2018-09-15T06:08:45.077Z,9.70
2018-09-15T06:09:48.204Z,9.66
2018-09-15T06:10:50.941Z,9.75
2018-09-15T06:11:53.765Z,9.83
2018-09-15T06:12:56.556Z,9.96
2018-09-15T06:13:59.299Z,10.09
2018-09-15T06:15:02.061Z,10.11
2018-09-15T06:16:05.162Z,10.04
2018-09-15T06:17:07.943Z,9.99
2018-09-15T06:18:10.704Z,9.94
2018-09-15T06:19:13.445Z,9.98
2018-09-15T06:20:16.197Z,9.99
2018-09-15T06:21:18.950Z,10.08
2018-09-15T06:22:22.255Z,10.08
2018-09-15T06:23:25.045Z,10.04
2018-09-15T06:24:27.837Z,10.08
2018-09-15T06:25:30.643Z,10.19
2018-09-15T06:26:33.994Z,10.23
2018-09-15T06:27:37.670Z,10.19
2018-09-15T06:28:40.826Z,10.15
2018-09-15T06:29:43.569Z,10.10
2018-09-15T06:30:46.317Z,10.15
2018-09-15T06:31:49.168Z,10.19
2018-09-15T06:32:53.625Z,10.12
2018-09-15T06:33:56.459Z,10.11
2018-09-15T06:34:59.564Z,10.05
2018-09-15T06:36:02.315Z,10.17
2018-09-15T06:37:05.679Z,10.24
2018-09-15T06:38:08.509Z,10.28
2018-09-15T06:39:12.584Z,10.35
2018-09-15T06:40:15.393Z,10.44
2018-09-15T06:41:18.436Z,10.43
2018-09-15T06:42:21.475Z,10.45
2018-09-15T06:43:24.251Z,10.56
2018-09-15T06:44:27.003Z,11.05
2018-09-15T06:45:29.846Z,11.60
2018-09-15T06:46:32.597Z,12.23
2018-09-15T06:47:35.839Z,12.44
2018-09-15T06:48:38.595Z,12.29
2018-09-15T06:49:41.382Z,12.36
2018-09-15T06:50:44.231Z,12.34
2018-09-15T06:51:47.759Z,12.25
2018-09-15T06:52:50.484Z,12.21
2018-09-15T06:53:53.636Z,12.23
2018-09-15T06:54:56.392Z,12.08
2018-09-15T06:55:59.150Z,12.07
2018-09-15T06:57:01.907Z,12.06
2018-09-15T06:58:04.703Z,11.97
2018-09-15T06:59:08.375Z,11.80
2018-09-15T07:00:12.440Z,11.65
2018-09-15T07:01:15.259Z,11.38
2018-09-15T07:02:18.822Z,11.24
2018-09-15T07:03:21.585Z,11.29
2018-09-15T07:04:25.782Z,11.26
2018-09-15T07:05:30.642Z,11.25
2018-09-15T07:06:34.631Z,11.22
2018-09-15T07:07:37.423Z,11.14
2018-09-15T07:08:40.316Z,11.06
2018-09-15T07:09:43.894Z,10.91
2018-09-15T07:10:47.414Z,10.90
2018-09-15T07:11:54.597Z,11.03
2018-09-15T07:13:00.277Z,11.06
2018-09-15T07:14:03.128Z,11.08
2018-09-15T07:15:05.882Z,11.10
2018-09-15T07:16:08.653Z,11.21
2018-09-15T07:17:11.394Z,11.17
2018-09-15T07:18:14.291Z,11.19
2018-09-15T07:19:17.117Z,11.29
2018-09-15T07:20:19.880Z,11.34
2018-09-15T07:21:22.610Z,11.25
2018-09-15T07:22:26.491Z,11.32
2018-09-15T07:23:29.281Z,11.44
2018-09-15T07:24:33.120Z,11.51
2018-09-15T07:25:35.853Z,11.61
2018-09-15T07:26:38.655Z,11.69
2018-09-15T07:27:41.454Z,11.78
2018-09-15T07:28:44.230Z,11.80
2018-09-15T07:29:47.230Z,12.00
2018-09-15T07:30:51.261Z,12.19
2018-09-15T07:31:54.713Z,12.05
2018-09-15T07:32:57.845Z,11.98
2018-09-15T07:34:01.603Z,12.04
2018-09-15T07:35:05.424Z,12.11
2018-09-15T07:36:08.454Z,12.23
2018-09-15T07:37:11.676Z,12.27
2018-09-15T07:38:14.710Z,12.31
2018-09-15T07:39:17.865Z,12.12
2018-09-15T07:40:23.802Z,12.28
2018-09-15T07:41:26.900Z,12.43
2018-09-15T07:42:29.642Z,12.53
2018-09-15T07:43:33.349Z,12.67
2018-09-15T07:44:36.142Z,12.70
2018-09-15T07:45:38.890Z,12.79
2018-09-15T07:46:42.550Z,12.84
2018-09-15T07:47:45.492Z,12.90
2018-09-15T07:48:50.368Z,12.94
2018-09-15T07:49:54.290Z,12.93
2018-09-15T07:51:00.188Z,13.07
2018-09-15T07:52:03.909Z,13.09
2018-09-15T07:53:06.678Z,13.11
2018-09-15T07:54:11.846Z,13.09
2018-09-15T07:55:15.310Z,13.18
2018-09-15T07:56:21.993Z,13.29
2018-09-15T07:57:24.849Z,13.46
2018-09-15T07:58:29.301Z,13.84
2018-09-15T07:59:33.492Z,13.97
2018-09-15T08:00:36.216Z,13.96
2018-09-15T08:01:39.676Z,13.99
2018-09-15T08:02:42.778Z,14.25
2018-09-15T08:03:46.842Z,15.16
2018-09-15T08:04:50.147Z,15.86
2018-09-15T08:05:53.539Z,16.10
2018-09-15T08:06:56.330Z,17.04
2018-09-15T08:08:00.199Z,17.37
2018-09-15T08:09:02.989Z,17.85
2018-09-15T08:10:05.719Z,17.85
2018-09-15T08:11:09.491Z,16.31
2018-09-15T08:12:12.600Z,15.28
2018-09-15T08:13:15.457Z,14.80
2018-09-15T08:14:19.718Z,14.32
2018-09-15T08:15:23.105Z,13.90
2018-09-15T08:16:25.846Z,13.94
2018-09-15T08:17:28.643Z,13.73
2018-09-15T08:18:32.216Z,13.61
2018-09-15T08:19:36.853Z,13.35
2018-09-15T08:20:41.491Z,13.37
2018-09-15T08:21:45.530Z,12.97
2018-09-15T08:22:54.516Z,13.29
2018-09-15T08:23:57.378Z,13.40
2018-09-15T08:25:00.940Z,13.07
2018-09-15T08:26:04.590Z,13.38
2018-09-15T08:27:07.935Z,13.54
2018-09-15T08:28:10.671Z,13.75
2018-09-15T08:29:13.696Z,13.78
2018-09-15T08:30:16.510Z,13.86
2018-09-15T08:31:19.270Z,13.20
2018-09-15T08:32:22.044Z,12.94
2018-09-15T08:33:25.923Z,13.09
2018-09-15T08:34:28.705Z,13.40
2018-09-15T08:35:31.465Z,13.43
2018-09-15T08:36:34.248Z,13.26
2018-09-15T08:37:38.481Z,13.04
2018-09-15T08:38:48.793Z,13.41
2018-09-15T08:39:52.188Z,13.18
2018-09-15T08:40:54.946Z,13.13
2018-09-15T08:41:57.701Z,13.48
2018-09-15T08:43:00.457Z,13.60
2018-09-15T08:44:03.500Z,13.64
2018-09-15T08:45:06.755Z,14.03
2018-09-15T08:46:10.221Z,13.94
2018-09-15T08:47:13.760Z,13.91
2018-09-15T08:48:16.769Z,13.84
2018-09-15T08:49:19.605Z,14.15
2018-09-15T08:50:23.290Z,14.40
2018-09-15T08:51:27.479Z,14.04
2018-09-15T08:52:30.248Z,14.15
2018-09-15T08:53:36.501Z,14.02
2018-09-15T08:54:39.309Z,14.26
2018-09-15T08:55:45.419Z,14.23
2018-09-15T08:56:48.358Z,14.47
2018-09-15T08:57:51.519Z,14.75
2018-09-15T08:58:55.086Z,14.83
2018-09-15T08:59:58.130Z,15.03
2018-09-15T09:01:01.215Z,14.65
2018-09-15T09:02:06.362Z,14.57
2018-09-15T09:03:09.841Z,14.25
2018-09-15T09:04:13.268Z,14.30
2018-09-15T09:05:17.272Z,14.06
2018-09-15T09:06:20.714Z,14.17
2018-09-15T09:07:23.674Z,14.72
2018-09-15T09:08:26.537Z,14.83
2018-09-15T09:09:30.108Z,14.89
2018-09-15T09:10:33.907Z,14.65
2018-09-15T09:11:36.718Z,14.64
2018-09-15T09:12:39.471Z,14.57
2018-09-15T09:13:42.356Z,14.39
2018-09-15T09:14:45.169Z,14.76
2018-09-15T09:15:47.930Z,15.45
2018-09-15T09:16:51.003Z,16.40
2018-09-15T09:17:54.531Z,16.85
2018-09-15T09:18:57.374Z,17.54
2018-09-15T09:20:00.237Z,18.02
2018-09-15T09:21:05.031Z,18.19
2018-09-15T09:22:08.672Z,18.47
2018-09-15T09:23:12.441Z,18.65
2018-09-15T09:24:17.538Z,18.42
2018-09-15T09:25:21.217Z,18.00
2018-09-15T09:26:25.303Z,17.26
2018-09-15T09:27:28.760Z,16.33
2018-09-15T09:28:32.018Z,15.94
2018-09-15T09:29:35.110Z,15.45
2018-09-15T09:30:39.603Z,15.19
2018-09-15T09:31:42.681Z,15.17
2018-09-15T09:32:45.497Z,15.84
2018-09-15T09:33:48.304Z,16.39
2018-09-15T09:34:51.954Z,16.54
2018-09-15T09:35:56.337Z,16.31
2018-09-15T09:36:59.768Z,16.12
2018-09-15T09:38:02.608Z,16.08
2018-09-15T09:39:06.455Z,15.98
2018-09-15T09:40:09.237Z,16.06
2018-09-15T09:41:12.769Z,16.13
2018-09-15T09:42:19.139Z,15.98
2018-09-15T09:43:23.693Z,15.53
2018-09-15T09:44:27.189Z,15.55
2018-09-15T09:45:30.632Z,15.83
2018-09-15T09:46:33.639Z,16.20
2018-09-15T09:47:37.760Z,16.22
2018-09-15T09:48:40.518Z,16.38
2018-09-15T09:49:43.250Z,16.50
2018-09-15T09:50:46.280Z,16.07
2018-09-15T09:51:49.292Z,16.11
2018-09-15T09:52:52.119Z,16.08
2018-09-15T09:53:55.383Z,16.47
2018-09-15T09:54:58.117Z,16.85
2018-09-15T09:56:00.897Z,17.12
2018-09-15T09:57:03.721Z,17.25
2018-09-15T09:58:08.542Z,17.61
2018-09-15T09:59:12.246Z,17.75
2018-09-15T10:00:20.461Z,17.12
2018-09-15T10:01:24.323Z,17.01
2018-09-15T10:02:27.796Z,17.02
2018-09-15T10:03:32.060Z,17.08
2018-09-15T10:04:36.442Z,17.75
2018-09-15T10:05:39.269Z,17.69
2018-09-15T10:06:42.528Z,18.05
2018-09-15T10:07:45.301Z,17.26
2018-09-15T10:08:48.048Z,16.71
2018-09-15T10:09:50.844Z,15.87
2018-09-15T10:10:53.694Z,15.94
2018-09-15T10:11:56.429Z,15.79
2018-09-15T10:13:00.782Z,16.05
2018-09-15T10:14:06.641Z,16.02
2018-09-15T10:15:09.401Z,15.98
2018-09-15T10:16:12.233Z,15.78
2018-09-15T10:17:15.196Z,15.68
2018-09-15T10:18:19.002Z,15.61
2018-09-15T10:19:24.280Z,15.55
2018-09-15T10:20:28.584Z,15.63
2018-09-15T10:21:32.696Z,15.72
2018-09-15T10:22:35.898Z,15.55
2018-09-15T10:23:40.362Z,15.71
2018-09-15T10:24:43.242Z,15.68
2018-09-15T10:25:46.378Z,15.83
2018-09-15T10:26:49.273Z,16.05
2018-09-15T10:27:52.090Z,16.54
2018-09-15T10:28:55.182Z,17.03
2018-09-15T10:29:58.853Z,17.53
2018-09-15T10:31:02.401Z,18.03
2018-09-15T10:32:05.613Z,18.09
2018-09-15T10:44:44.581Z,16.57
2018-09-15T10:45:47.651Z,16.62
2018-09-15T10:46:50.466Z,16.82
2018-09-15T10:47:53.346Z,16.70
2018-09-15T10:48:56.776Z,16.76
2018-09-15T10:49:59.890Z,16.41
2018-09-15T10:51:03.814Z,16.66
2018-09-15T10:52:06.549Z,16.69
2018-09-15T10:53:10.925Z,16.87
2018-09-15T10:54:13.766Z,16.88
2018-09-15T10:55:17.276Z,16.80
2018-09-15T10:56:21.987Z,17.13
2018-09-15T10:57:24.754Z,17.80
2018-09-15T10:58:30.628Z,18.55
2018-09-15T10:59:35.008Z,18.84
2018-09-15T11:00:38.668Z,19.12
2018-09-15T11:01:41.601Z,19.70
2018-09-15T11:03:52.311Z,19.38
2018-09-15T11:04:56.101Z,19.91
2018-09-15T11:07:10.464Z,19.71
2018-09-15T11:08:15.931Z,18.96
2018-09-15T11:09:20.015Z,18.97
2018-09-15T11:10:36.331Z,18.63
2018-09-15T11:11:40.869Z,19.66
2018-09-15T11:12:43.901Z,20.19
2018-09-15T11:13:46.771Z,20.19
2018-09-15T11:14:50.496Z,19.94
2018-09-15T11:15:54.356Z,19.24
2018-09-15T11:16:59.930Z,18.72
2018-09-15T11:18:06.120Z,18.64
2018-09-15T11:19:09.660Z,18.87
2018-09-15T11:20:12.681Z,18.69
2018-09-15T11:21:15.767Z,18.62
2018-09-15T11:22:19.550Z,18.78
2018-09-15T11:23:23.942Z,17.86
2018-09-15T11:24:27.432Z,16.96
2018-09-15T11:25:30.419Z,17.02
2018-09-15T11:26:36.984Z,17.26
2018-09-15T11:27:41.779Z,17.30
2018-09-15T11:28:46.710Z,17.19
2018-09-15T11:29:49.496Z,17.07
2018-09-15T11:30:53.226Z,17.16
2018-09-15T11:31:56.633Z,17.16
2018-09-15T11:32:59.807Z,17.02
2018-09-15T11:34:02.774Z,17.04
2018-09-15T11:35:07.880Z,17.12
2018-09-15T11:36:10.704Z,16.88
2018-09-15T11:37:13.620Z,17.02
2018-09-15T11:38:17.654Z,17.27
2018-09-15T11:39:21.459Z,17.21
2018-09-15T11:40:24.943Z,17.03
2018-09-15T11:41:33.513Z,17.01
2018-09-15T11:42:37.255Z,17.17
2018-09-15T11:43:41.168Z,16.98
2018-09-15T11:44:45.798Z,17.04
2018-09-15T11:45:50.087Z,17.19
2018-09-15T11:46:56.289Z,17.19
2018-09-15T11:47:59.834Z,17.34
2018-09-15T11:49:04.693Z,17.15
2018-09-15T11:50:08.281Z,17.11
2018-09-15T11:51:13.387Z,17.25
2018-09-15T11:52:17.709Z,17.25
2018-09-15T11:53:25.995Z,17.25
2018-09-15T11:54:29.466Z,17.02
2018-09-15T11:55:33.243Z,16.87
2018-09-15T11:56:40.497Z,16.76
2018-09-15T11:57:43.344Z,16.91
2018-09-15T11:58:47.319Z,16.78
2018-09-15T11:59:50.206Z,16.75
2018-09-15T12:00:55.974Z,16.71
2018-09-15T12:01:59.392Z,16.85
2018-09-15T12:03:03.413Z,16.79
2018-09-15T12:04:07.743Z,17.06
2018-09-15T12:05:11.888Z,17.05
2018-09-15T12:06:14.683Z,16.79
2018-09-15T12:07:17.566Z,16.66
2018-09-15T12:08:20.458Z,16.55
2018-09-15T12:09:23.260Z,16.56
2018-09-15T12:10:26.104Z,16.66
2018-09-15T12:11:29.682Z,16.70
2018-09-15T12:12:35.214Z,16.78
2018-09-15T12:13:38.277Z,16.80
2018-09-15T12:14:41.084Z,16.58
2018-09-15T12:15:43.838Z,16.53
2018-09-15T12:16:47.272Z,16.61
2018-09-15T12:17:52.084Z,16.63
2018-09-15T12:18:55.645Z,16.40
2018-09-15T12:19:58.509Z,16.44
2018-09-15T12:21:03.590Z,16.22
2018-09-15T12:22:06.420Z,16.22
2018-09-15T12:23:09.217Z,16.27
2018-09-15T12:24:13.260Z,16.29
2018-09-15T12:25:16.050Z,16.30
2018-09-15T12:26:18.839Z,16.27
2018-09-15T12:27:22.526Z,16.33
2018-09-15T12:28:25.323Z,16.39
2018-09-15T12:29:28.112Z,16.44
2018-09-15T12:30:30.892Z,16.45
2018-09-15T12:31:33.925Z,16.57
2018-09-15T12:32:37.442Z,16.64
2018-09-15T12:33:40.249Z,16.54
2018-09-15T12:34:43.029Z,16.68
2018-09-15T12:35:46.717Z,16.61
2018-09-15T12:36:49.534Z,16.51
2018-09-15T12:37:52.300Z,16.27
2018-09-15T12:38:55.060Z,16.15
2018-09-15T12:39:57.829Z,16.23
2018-09-15T12:41:00.895Z,16.28
2018-09-15T12:42:04.299Z,16.16
2018-09-15T12:43:07.847Z,16.14
2018-09-15T12:44:11.238Z,16.14
2018-09-15T12:45:14.709Z,16.23
2018-09-15T12:46:18.187Z,16.17
2018-09-15T12:47:20.955Z,16.05
2018-09-15T12:48:24.106Z,15.96
2018-09-15T12:49:29.620Z,15.95
2018-09-15T12:50:32.459Z,16.01
2018-09-15T12:51:35.222Z,16.01
2018-09-15T12:52:41.465Z,16.09
2018-09-15T12:53:44.725Z,16.05
2018-09-15T12:54:48.587Z,16.15
2018-09-15T12:55:54.468Z,16.11
2018-09-15T12:56:57.385Z,15.99
2018-09-15T12:58:00.212Z,16.09
2018-09-15T12:59:05.373Z,15.94
2018-09-15T13:00:08.185Z,16.03
2018-09-15T13:01:11.270Z,15.95
2018-09-15T13:02:15.207Z,16.03
2018-09-15T13:03:20.130Z,16.14
2018-09-15T13:04:22.953Z,16.13
2018-09-15T13:05:27.099Z,16.19
2018-09-15T13:06:30.761Z,16.23
2018-09-15T13:07:34.628Z,16.30
2018-09-15T13:08:40.042Z,16.30
2018-09-15T13:09:44.016Z,16.46
2018-09-15T13:10:47.818Z,16.53
2018-09-15T13:11:50.697Z,16.48
2018-09-15T13:12:55.002Z,16.52
2018-09-15T13:13:58.618Z,16.68
2018-09-15T13:15:01.488Z,16.81
2018-09-15T13:16:06.265Z,16.62
2018-09-15T13:17:09.358Z,16.85
2018-09-15T13:18:12.512Z,17.02
2018-09-15T13:19:17.705Z,17.12
2018-09-15T13:20:21.609Z,17.12
2018-09-15T13:21:25.858Z,17.01
2018-09-15T13:22:28.653Z,17.08
2018-09-15T13:23:31.471Z,17.13
2018-09-15T13:24:34.282Z,16.92
2018-09-15T13:25:37.719Z,16.91
2018-09-15T13:26:41.488Z,17.07
2018-09-15T13:27:44.228Z,16.77
2018-09-15T13:28:49.658Z,16.86
2018-09-15T13:29:52.679Z,17.00
2018-09-15T13:30:55.456Z,17.21
2018-09-15T13:31:58.821Z,17.27
2018-09-15T13:33:02.405Z,17.49
2018-09-15T13:34:05.230Z,17.39
2018-09-15T13:35:09.552Z,17.27
2018-09-15T13:36:13.076Z,17.14
2018-09-15T13:37:16.508Z,17.17
2018-09-15T13:38:19.346Z,17.48
2018-09-15T13:39:22.420Z,17.22
2018-09-15T13:40:25.161Z,17.53
2018-09-15T13:41:27.938Z,17.96
2018-09-15T13:42:30.710Z,18.23
2018-09-15T13:43:33.857Z,18.71
2018-09-15T13:44:36.976Z,18.39
2018-09-15T13:45:40.955Z,18.54
2018-09-15T13:46:43.731Z,18.92
2018-09-15T13:47:46.598Z,18.90
2018-09-15T13:48:49.639Z,18.99
2018-09-15T13:49:52.443Z,19.30
2018-09-15T13:50:55.978Z,19.49
2018-09-15T13:52:00.160Z,19.53
2018-09-15T13:53:04.010Z,19.43
2018-09-15T13:54:06.814Z,19.13
2018-09-15T13:55:10.355Z,18.44
2018-09-15T13:56:13.188Z,18.27
2018-09-15T13:57:15.938Z,18.37
2018-09-15T13:58:20.645Z,18.40
2018-09-15T13:59:23.394Z,18.61
2018-09-15T14:00:28.658Z,18.61
2018-09-15T14:01:31.451Z,18.65
2018-09-15T14:02:37.556Z,18.70
2018-09-15T14:03:40.312Z,18.95
2018-09-15T14:04:46.029Z,18.30
2018-09-15T14:05:49.950Z,18.15
2018-09-15T14:06:52.721Z,17.58
2018-09-15T14:07:55.505Z,17.49